Time;durP1;ratioP1;P1;durP2;ratioP2;P2;SDS_P1;SDS_P2;PMS_P1;PMS_P2;Temp;Humidity;BMP_temperature;BMP_pressure;BME280_temperature;BME280_humidity;BME280_pressure;Samples;Min_cycle;Max_cycle;Signal;HPM_P1;HPM_P2
2022/05/31 00:01:16;;;;;;;5.23;3.20;;;13.40;74.20;;;;;;5086322;28;20437;-86
2022/05/31 00:03:43;;;;;;;7.37;4.30;;;13.50;74.80;;;;;;5095380;28;20454;-86
2022/05/31 00:06:10;;;;;;;4.03;3.63;;;13.40;74.70;;;;;;5089268;28;20531;-85
2022/05/31 00:08:36;;;;;;;3.60;3.20;;;13.40;75.70;;;;;;5089320;28;20439;-85
2022/05/31 00:11:04;;;;;;;3.53;2.80;;;13.30;75.90;;;;;;5068852;28;20476;-85
2022/05/31 00:13:31;;;;;;;4.37;3.30;;;13.20;76.40;;;;;;5089489;28;20826;-85
2022/05/31 00:15:58;;;;;;;3.67;3.37;;;13.20;76.90;;;;;;5089704;28;20439;-85
2022/05/31 00:18:25;;;;;;;4.77;3.83;;;13.20;77.10;;;;;;5089491;28;20445;-85
2022/05/31 00:20:52;;;;;;;3.70;3.40;;;13.10;77.30;;;;;;5088814;28;20513;-86
2022/05/31 00:23:20;;;;;;;3.90;3.60;;;13.00;77.70;;;;;;5080598;28;20998;-85
2022/05/31 00:25:47;;;;;;;3.57;3.27;;;12.90;78.00;;;;;;5073803;28;20487;-85
2022/05/31 00:28:15;;;;;;;4.73;3.50;;;12.90;78.10;;;;;;5068627;28;20436;-86
2022/05/31 00:30:42;;;;;;;3.63;3.30;;;12.90;78.00;;;;;;5069777;28;20490;-85
2022/05/31 00:33:10;;;;;;;4.03;3.63;;;12.80;77.70;;;;;;5069856;28;20464;-85
2022/05/31 00:35:40;;;;;;;5.10;4.13;;;12.80;77.70;;;;;;5075891;28;20454;-86
2022/05/31 00:38:09;;;;;;;3.77;3.40;;;12.80;77.80;;;;;;5078884;28;20446;-86
2022/05/31 00:40:37;;;;;;;4.17;3.77;;;12.80;77.90;;;;;;5079231;28;20445;-86
2022/05/31 00:43:05;;;;;;;4.27;3.87;;;12.90;77.90;;;;;;5096833;28;20451;-85
2022/05/31 00:45:36;;;;;;;4.90;3.27;;;12.80;77.90;;;;;;5098685;28;20439;-85
2022/05/31 00:48:07;;;;;;;3.83;3.07;;;12.80;78.30;;;;;;5106000;28;20427;-86
2022/05/31 00:50:37;;;;;;;3.77;3.47;;;12.70;78.50;;;;;;5104906;28;20503;-84
2022/05/31 00:53:10;;;;;;;6.10;4.10;;;12.60;78.90;;;;;;5092508;28;20518;-86
2022/05/31 00:55:42;;;;;;;5.80;5.27;;;12.60;79.50;;;;;;5105966;28;20414;-84
2022/05/31 00:58:16;;;;;;;8.00;4.70;;;12.50;79.90;;;;;;5115049;28;20506;-85
2022/05/31 01:00:45;;;;;;;4.70;4.03;;;12.50;80.20;;;;;;5115783;28;20432;-85
2022/05/31 01:03:18;;;;;;;4.53;4.13;;;12.40;80.90;;;;;;5103920;28;20459;-86
2022/05/31 01:05:45;;;;;;;4.57;3.50;;;12.40;81.20;;;;;;5106951;28;20439;-85
2022/05/31 01:08:12;;;;;;;4.17;3.77;;;12.30;81.60;;;;;;5106235;28;20439;-85
2022/05/31 01:10:41;;;;;;;5.87;4.10;;;12.30;82.00;;;;;;5102615;28;20451;-85
2022/05/31 01:13:08;;;;;;;4.77;4.27;;;12.30;82.60;;;;;;5103001;28;20445;-84
2022/05/31 01:15:35;;;;;;;4.57;4.17;;;12.30;83.20;;;;;;5104603;28;20431;-85
2022/05/31 01:18:04;;;;;;;4.53;4.10;;;12.20;83.10;;;;;;5091927;28;20446;-85
2022/05/31 01:20:32;;;;;;;6.90;4.33;;;12.10;84.00;;;;;;5092169;28;20428;-86
2022/05/31 01:23:04;;;;;;;5.33;4.83;;;12.20;84.50;;;;;;5090160;28;20462;-86
2022/05/31 01:25:46;;;;;;;5.60;5.10;;;12.20;84.70;;;;;;5091098;28;20430;-85
2022/05/31 01:28:20;;;;;;;4.90;4.50;;;12.20;85.20;;;;;;5075907;28;20439;-86
2022/05/31 01:30:55;;;;;;;5.00;4.60;;;12.10;85.20;;;;;;5080537;28;20504;-87
2022/05/31 01:33:28;;;;;;;6.70;4.50;;;12.10;85.90;;;;;;5072226;28;20466;-86
2022/05/31 01:36:02;;;;;;;5.20;4.70;;;12.10;86.20;;;;;;5071830;28;20440;-86
2022/05/31 01:38:36;;;;;;;4.73;4.20;;;12.00;86.50;;;;;;5088217;28;20441;-86
2022/05/31 01:41:12;;;;;;;5.13;4.57;;;12.00;86.70;;;;;;5088830;28;20441;-86
2022/05/31 01:43:43;;;;;;;10.13;4.07;;;12.10;86.80;;;;;;5086612;28;20827;-86
2022/05/31 01:46:16;;;;;;;6.83;3.97;;;12.00;87.00;;;;;;5099484;28;20436;-86
2022/05/31 01:48:44;;;;;;;4.83;4.43;;;12.00;87.50;;;;;;5086031;28;20439;-86
2022/05/31 01:51:13;;;;;;;5.23;4.17;;;12.00;87.70;;;;;;5078989;28;20481;-87
2022/05/31 01:53:41;;;;;;;5.63;4.50;;;12.00;87.50;;;;;;5072024;28;20475;-85
2022/05/31 01:56:10;;;;;;;4.43;4.03;;;12.00;87.30;;;;;;5083549;28;20435;-86
2022/05/31 01:58:40;;;;;;;4.73;3.50;;;11.90;87.80;;;;;;5092714;28;20461;-85
2022/05/31 02:01:09;;;;;;;4.30;3.90;;;11.90;88.20;;;;;;5101178;28;20431;-85
2022/05/31 02:03:38;;;;;;;7.60;4.67;;;12.00;88.40;;;;;;5098180;28;20637;-85
2022/05/31 02:06:05;;;;;;;5.30;4.20;;;12.00;88.80;;;;;;5082582;28;20448;-85
2022/05/31 02:08:33;;;;;;;4.80;4.40;;;11.90;89.10;;;;;;5075203;28;20437;-86
2022/05/31 02:11:01;;;;;;;5.47;4.43;;;11.90;89.90;;;;;;5078516;28;20845;-86
2022/05/31 02:13:28;;;;;;;4.30;3.90;;;11.90;90.10;;;;;;5073643;28;20455;-86
2022/05/31 02:15:55;;;;;;;4.60;4.20;;;11.90;90.20;;;;;;5073670;28;20446;-87
2022/05/31 02:19:15;;;;;;;6.67;5.00;;;11.90;90.70;;;;;;5082786;28;20500;-86
2022/05/31 02:21:10;;;;;;;6.20;5.03;;;11.90;91.10;;;;;;5091433;28;20856;-86
2022/05/31 02:23:39;;;;;;;4.50;4.10;;;11.90;91.50;;;;;;5089700;28;20530;-86
2022/05/31 02:26:06;;;;;;;5.33;4.83;;;11.80;91.60;;;;;;5091894;28;20735;-86
2022/05/31 02:28:33;;;;;;;4.93;4.50;;;11.80;92.00;;;;;;5083891;28;20436;-85
2022/05/31 02:30:59;;;;;;;5.50;4.83;;;11.70;92.50;;;;;;5097925;28;20769;-86
2022/05/31 02:33:26;;;;;;;5.57;4.17;;;11.70;92.60;;;;;;5091882;28;20462;-86
2022/05/31 02:35:53;;;;;;;4.97;4.57;;;11.70;92.70;;;;;;5091450;28;20450;-85
2022/05/31 02:38:20;;;;;;;5.10;4.60;;;11.60;92.90;;;;;;5079628;28;20442;-85
2022/05/31 02:40:48;;;;;;;5.63;4.57;;;11.60;93.40;;;;;;5069797;28;20869;-86
2022/05/31 02:43:15;;;;;;;4.63;4.23;;;11.50;93.30;;;;;;5090577;28;20462;-86
2022/05/31 02:45:41;;;;;;;4.83;4.37;;;11.40;94.00;;;;;;5086292;28;20471;-86
2022/05/31 02:48:09;;;;;;;5.00;4.33;;;11.40;94.50;;;;;;5080356;28;20446;-86
2022/05/31 02:50:39;;;;;;;4.90;4.47;;;11.40;94.80;;;;;;5100259;28;20478;-86
2022/05/31 02:53:06;;;;;;;6.30;5.10;;;11.30;94.80;;;;;;5075845;28;20531;-87
2022/05/31 02:55:33;;;;;;;5.00;4.50;;;11.30;95.00;;;;;;5091431;28;20692;-86
2022/05/31 02:58:01;;;;;;;5.37;4.87;;;11.30;95.10;;;;;;5082666;28;20951;-86
2022/05/31 03:00:28;;;;;;;4.70;4.30;;;11.30;95.10;;;;;;5075123;28;20437;-86
2022/05/31 03:02:54;;;;;;;6.60;4.67;;;11.40;95.20;;;;;;5086281;28;20462;-86
2022/05/31 03:05:21;;;;;;;5.40;4.90;;;11.40;95.00;;;;;;5092903;28;20926;-86
2022/05/31 03:07:48;;;;;;;6.00;4.40;;;11.30;95.30;;;;;;5076625;28;20501;-86
2022/05/31 03:10:15;;;;;;;8.60;5.27;;;11.20;95.60;;;;;;5085774;28;20454;-85
2022/05/31 03:12:41;;;;;;;5.20;4.80;;;11.20;96.30;;;;;;5089463;28;20424;-85
2022/05/31 03:15:12;;;;;;;5.57;4.27;;;11.10;96.20;;;;;;5103854;28;20444;-86
2022/05/31 03:17:45;;;;;;;6.53;4.50;;;11.10;96.60;;;;;;5081164;28;20458;-86
2022/05/31 03:20:18;;;;;;;5.37;4.87;;;11.00;96.90;;;;;;5073510;28;20451;-86
2022/05/31 03:22:49;;;;;;;5.57;4.63;;;11.10;97.30;;;;;;5078663;28;20453;-86
2022/05/31 03:25:19;;;;;;;5.40;4.90;;;11.00;97.60;;;;;;5092237;28;20442;-86
2022/05/31 03:27:47;;;;;;;6.17;4.97;;;11.00;97.90;;;;;;5070614;28;20435;-85
2022/05/31 03:30:16;;;;;;;5.27;4.70;;;11.10;98.20;;;;;;5074943;28;20470;-86
2022/05/31 03:32:44;;;;;;;4.43;3.93;;;11.10;98.40;;;;;;5097647;28;20447;-86
2022/05/31 03:35:11;;;;;;;6.43;4.43;;;11.00;98.70;;;;;;5087466;28;20548;-86
2022/05/31 03:37:38;;;;;;;5.93;4.63;;;11.00;99.30;;;;;;5075666;28;20427;-86
2022/05/31 03:40:07;;;;;;;8.80;5.53;;;11.00;99.60;;;;;;5091761;28;20524;-85
2022/05/31 03:42:34;;;;;;;6.33;5.27;;;10.90;99.60;;;;;;5096549;28;20471;-86
2022/05/31 03:45:00;;;;;;;5.57;5.07;;;10.90;99.70;;;;;;5085761;28;20855;-86
2022/05/31 03:47:29;;;;;;;8.00;4.73;;;10.90;99.70;;;;;;5085249;28;20459;-86
2022/05/31 03:49:55;;;;;;;5.10;4.70;;;11.00;99.60;;;;;;5072577;28;20468;-87
2022/05/31 03:52:22;;;;;;;4.67;4.20;;;11.10;99.60;;;;;;5084384;28;20478;-85
2022/05/31 03:54:49;;;;;;;7.20;5.13;;;11.20;99.30;;;;;;5095489;28;20482;-86
2022/05/31 03:57:17;;;;;;;6.00;5.40;;;11.30;99.00;;;;;;5082783;28;20797;-86
2022/05/31 03:59:45;;;;;;;9.33;6.13;;;11.40;98.70;;;;;;5089666;28;20839;-87
2022/05/31 04:02:11;;;;;;;8.83;4.67;;;11.40;98.60;;;;;;5088952;28;20437;-86
2022/05/31 04:04:39;;;;;;;6.90;5.77;;;11.40;98.40;;;;;;5085905;28;20480;-87
2022/05/31 04:07:06;;;;;;;6.23;5.50;;;11.50;98.30;;;;;;5085665;28;20446;-87
2022/05/31 04:09:33;;;;;;;8.93;5.80;;;11.50;98.00;;;;;;5108957;28;20440;-87
2022/05/31 04:12:00;;;;;;;7.70;5.90;;;11.40;97.50;;;;;;5098999;28;20447;-86
2022/05/31 04:14:27;;;;;;;9.00;6.40;;;11.40;97.10;;;;;;5102014;28;20511;-88
2022/05/31 04:16:54;;;;;;;9.90;7.13;;;11.20;96.80;;;;;;5106615;28;20426;-88
2022/05/31 04:19:21;;;;;;;10.67;6.50;;;11.20;97.30;;;;;;5099887;28;20427;-88
2022/05/31 04:21:49;;;;;;;7.90;5.83;;;11.20;97.30;;;;;;5102484;28;20441;-88
2022/05/31 04:24:16;;;;;;;8.13;6.20;;;11.20;97.40;;;;;;5105190;28;20462;-88
2022/05/31 04:26:45;;;;;;;9.50;7.00;;;11.30;97.80;;;;;;5077527;28;20445;-87
2022/05/31 04:29:12;;;;;;;8.20;6.53;;;11.30;97.50;;;;;;5080119;28;20439;-88
2022/05/31 04:31:39;;;;;;;10.03;7.37;;;11.20;98.00;;;;;;5084350;28;20475;-88
2022/05/31 04:34:06;;;;;;;9.13;6.87;;;11.20;97.80;;;;;;5071243;28;20524;-87
2022/05/31 04:36:33;;;;;;;9.93;7.80;;;11.20;97.30;;;;;;5086213;28;20452;-87
2022/05/31 04:39:03;;;;;;;13.47;7.77;;;11.10;97.60;;;;;;5082770;28;20411;-87
2022/05/31 04:41:31;;;;;;;9.73;7.30;;;11.10;97.80;;;;;;5093022;28;20917;-87
2022/05/31 04:44:00;;;;;;;9.60;7.53;;;11.20;98.00;;;;;;5076772;28;20455;-87
2022/05/31 04:46:28;;;;;;;10.20;8.20;;;11.30;98.10;;;;;;5078717;28;20447;-87
2022/05/31 04:48:56;;;;;;;13.13;9.10;;;11.40;98.00;;;;;;5082780;28;20439;-87
2022/05/31 04:51:23;;;;;;;10.57;9.47;;;11.40;97.80;;;;;;5091300;28;20482;-87
2022/05/31 04:53:51;;;;;;;11.10;10.00;;;11.50;97.70;;;;;;5080396;28;20460;-87
2022/05/31 04:56:21;;;;;;;18.93;10.17;;;11.50;97.20;;;;;;5085103;28;20823;-87
2022/05/31 04:58:49;;;;;;;12.10;10.27;;;11.60;96.90;;;;;;5073649;28;20441;-86
2022/05/31 05:01:15;;;;;;;14.40;10.83;;;11.60;96.90;;;;;;5074310;28;20434;-87
2022/05/31 05:03:44;;;;;;;12.00;10.63;;;11.60;96.90;;;;;;5069639;28;20459;-87
2022/05/31 05:06:12;;;;;;;16.57;9.70;;;11.70;96.90;;;;;;5079457;28;20486;-87
2022/05/31 05:08:40;;;;;;;12.53;10.17;;;11.70;96.80;;;;;;5086348;28;20442;-87
2022/05/31 05:11:09;;;;;;;13.27;11.40;;;11.80;97.30;;;;;;5070361;28;20478;-88
2022/05/31 05:13:38;;;;;;;15.63;10.53;;;12.40;96.70;;;;;;5079822;28;20501;-87
2022/05/31 05:16:06;;;;;;;17.20;11.67;;;13.00;95.30;;;;;;5079767;28;20497;-87
2022/05/31 05:18:34;;;;;;;15.60;11.30;;;13.80;93.80;;;;;;5084381;28;20439;-87
2022/05/31 05:21:01;;;;;;;17.30;12.07;;;14.60;92.00;;;;;;5077889;28;20443;-87
2022/05/31 05:23:29;;;;;;;15.63;10.30;;;15.20;89.90;;;;;;5072956;28;20481;-85
2022/05/31 05:25:57;;;;;;;14.87;11.03;;;15.70;86.20;;;;;;5093311;28;20824;-88
2022/05/31 05:31:18;;;;;;;16.47;11.37;;;17.10;80.00;;;;;;5087691;28;20524;-86
2022/05/31 05:33:45;;;;;;;12.80;11.47;;;17.40;75.60;;;;;;5085300;28;20471;-88
2022/05/31 05:36:12;;;;;;;12.33;11.03;;;17.70;73.80;;;;;;5076622;28;20944;-86
2022/05/31 05:38:39;;;;;;;12.80;11.17;;;17.80;72.00;;;;;;5075636;28;20993;-86
2022/05/31 05:41:06;;;;;;;19.90;12.30;;;17.80;71.30;;;;;;5090629;28;20811;-87
2022/05/31 05:43:33;;;;;;;12.67;9.80;;;18.00;70.50;;;;;;5072905;28;20468;-87
2022/05/31 05:45:59;;;;;;;14.60;10.20;;;18.60;69.60;;;;;;5090953;28;20435;-86
2022/05/31 05:48:28;;;;;;;14.77;10.07;;;19.10;67.60;;;;;;5079688;28;20446;-87
2022/05/31 05:50:55;;;;;;;11.23;9.33;;;19.50;66.00;;;;;;5086133;28;20474;-87
2022/05/31 05:53:22;;;;;;;15.20;10.20;;;19.80;63.60;;;;;;5094145;28;20463;-87
2022/05/31 05:55:49;;;;;;;12.03;10.00;;;19.70;61.90;;;;;;5079770;28;21033;-87
2022/05/31 05:58:15;;;;;;;15.93;10.20;;;18.90;62.00;;;;;;5079926;28;20483;-86
2022/05/31 06:00:48;;;;;;;11.07;9.90;;;18.10;64.90;;;;;;5078180;28;20435;-88
2022/05/31 06:03:20;;;;;;;12.30;9.30;;;17.70;66.00;;;;;;5081473;28;20458;-87
2022/05/31 06:05:49;;;;;;;17.10;11.27;;;17.20;67.00;;;;;;5074163;28;20454;-87
2022/05/31 06:08:20;;;;;;;9.60;8.70;;;17.10;68.80;;;;;;5084690;28;20471;-88
2022/05/31 06:11:00;;;;;;;10.47;9.47;;;17.80;68.20;;;;;;5093337;28;20451;-88
2022/05/31 06:13:32;;;;;;;14.30;10.67;;;18.50;64.90;;;;;;5084162;28;20608;-88
2022/05/31 06:15:58;;;;;;;14.20;10.00;;;18.80;65.30;;;;;;5077492;28;20441;-87
2022/05/31 06:18:29;;;;;;;14.17;11.20;;;19.20;63.30;;;;;;5093529;28;20520;-84
2022/05/31 06:21:01;;;;;;;11.97;10.70;;;19.00;63.00;;;;;;5095295;28;20449;-80
2022/05/31 06:23:28;;;;;;;15.60;11.33;;;18.60;63.40;;;;;;5095661;28;20472;-81
2022/05/31 06:25:57;;;;;;;14.30;10.63;;;18.10;64.30;;;;;;5097574;28;20435;-81
2022/05/31 06:28:23;;;;;;;16.37;11.10;;;17.80;65.80;;;;;;5096593;28;20441;-83
2022/05/31 06:30:50;;;;;;;13.77;10.97;;;17.60;67.30;;;;;;5097091;28;20809;-80
2022/05/31 06:33:17;;;;;;;14.63;11.47;;;17.50;67.50;;;;;;5080002;28;20463;-81
2022/05/31 06:35:43;;;;;;;15.03;10.57;;;17.40;68.70;;;;;;5085496;28;20452;-81
2022/05/31 06:38:11;;;;;;;14.37;10.27;;;17.70;68.40;;;;;;5087350;28;20518;-79
2022/05/31 06:40:40;;;;;;;14.60;10.50;;;17.20;68.10;;;;;;5096656;28;20450;-79
2022/05/31 06:43:07;;;;;;;13.90;10.50;;;17.50;67.40;;;;;;5111007;28;20444;-80
2022/05/31 06:45:33;;;;;;;13.43;9.30;;;17.60;67.00;;;;;;5113399;28;20445;-79
2022/05/31 06:48:00;;;;;;;15.77;11.47;;;17.50;67.00;;;;;;5115013;28;20454;-80
2022/05/31 06:50:27;;;;;;;16.00;10.40;;;18.70;65.60;;;;;;5111069;28;20443;-82
2022/05/31 06:58:23;;;;;;;13.40;8.63;;;18.60;62.60;;;;;;5097106;28;20415;-79
2022/05/31 07:00:50;;;;;;;14.43;8.60;;;18.50;63.70;;;;;;5092249;28;20509;-81
2022/05/31 07:03:17;;;;;;;11.93;8.83;;;19.20;63.10;;;;;;5073915;28;20461;-80
2022/05/31 07:05:43;;;;;;;11.23;7.97;;;20.00;61.10;;;;;;5079497;28;20454;-81
2022/05/31 07:08:10;;;;;;;11.23;8.40;;;20.50;59.80;;;;;;5082116;28;20437;-81
2022/05/31 07:10:45;;;;;;;10.77;8.40;;;20.30;59.70;;;;;;5078554;28;20451;-80
2022/05/31 07:13:21;;;;;;;11.10;7.30;;;21.20;58.10;;;;;;5078915;28;20471;-80
2022/05/31 07:15:51;;;;;;;9.90;6.73;;;22.20;56.50;;;;;;5080557;28;20813;-82
2022/05/31 07:18:17;;;;;;;11.77;5.47;;;22.90;55.20;;;;;;5085261;28;20865;-81
2022/05/31 07:20:44;;;;;;;8.77;5.93;;;23.90;53.40;;;;;;5088948;28;20507;-81
2022/05/31 07:23:11;;;;;;;10.53;5.97;;;24.80;51.70;;;;;;5092809;28;20452;-80
2022/05/31 07:25:39;;;;;;;6.13;5.30;;;25.70;50.20;;;;;;5093468;28;20427;-80
2022/05/31 07:28:06;;;;;;;7.20;5.10;;;26.30;48.70;;;;;;5099654;28;20426;-79
2022/05/31 07:30:34;;;;;;;4.77;3.87;;;26.30;47.70;;;;;;5085839;28;20442;-82
2022/05/31 07:33:00;;;;;;;4.10;3.70;;;25.70;47.70;;;;;;5080968;28;20473;-81
2022/05/31 07:35:29;;;;;;;4.50;4.07;;;24.80;48.50;;;;;;5079582;28;20485;-82
2022/05/31 07:37:56;;;;;;;4.53;3.47;;;23.80;49.60;;;;;;5077062;28;20440;-81
2022/05/31 07:40:22;;;;;;;6.67;3.57;;;23.60;51.50;;;;;;5068656;28;20433;-81
2022/05/31 07:42:50;;;;;;;4.53;2.90;;;24.20;50.80;;;;;;5086101;28;20462;-82
2022/05/31 07:45:17;;;;;;;7.97;3.90;;;25.10;49.10;;;;;;5075400;28;20459;-82
2022/05/31 07:47:46;;;;;;;5.60;3.83;;;24.30;49.20;;;;;;5081460;28;20455;-80
2022/05/31 07:50:12;;;;;;;4.50;3.83;;;23.60;49.80;;;;;;5079354;28;20471;-81
2022/05/31 07:52:40;;;;;;;5.50;3.27;;;23.20;50.60;;;;;;5078650;28;20489;-82
2022/05/31 07:55:08;;;;;;;4.77;3.33;;;23.00;51.40;;;;;;5078258;28;20532;-81
2022/05/31 08:00:21;;;;;;;6.10;4.00;;;24.00;49.80;;;;;;5099535;28;20500;-81
2022/05/31 08:02:48;;;;;;;4.53;3.37;;;24.40;49.90;;;;;;5089312;28;20435;-80
2022/05/31 08:05:15;;;;;;;4.10;3.00;;;25.20;49.50;;;;;;5081031;28;20443;-80
2022/05/31 08:07:42;;;;;;;5.13;4.00;;;25.10;48.20;;;;;;5070039;28;20478;-81
2022/05/31 08:10:10;;;;;;;7.10;3.07;;;24.60;48.90;;;;;;5076243;28;20530;-81
2022/05/31 08:12:37;;;;;;;3.10;2.77;;;26.20;47.80;;;;;;5083707;28;20473;-83
2022/05/31 08:15:05;;;;;;;4.83;3.97;;;27.60;45.40;;;;;;5071034;28;20442;-82
2022/05/31 08:17:33;;;;;;;4.87;2.87;;;28.90;43.90;;;;;;5076635;28;20451;-82
2022/05/31 08:20:00;;;;;;;4.03;2.77;;;29.40;42.30;;;;;;5070578;28;20436;-85
2022/05/31 08:22:26;;;;;;;3.73;3.07;;;30.40;42.00;;;;;;5080399;28;21086;-85
2022/05/31 08:24:53;;;;;;;8.27;3.13;;;30.50;40.40;;;;;;5095338;28;20444;-84
2022/05/31 08:27:20;;;;;;;3.00;2.40;;;30.40;40.60;;;;;;5080783;28;20440;-85
2022/05/31 08:29:47;;;;;;;3.27;2.30;;;30.10;40.70;;;;;;5072599;28;20439;-85
2022/05/31 08:32:14;;;;;;;3.20;2.70;;;30.60;40.20;;;;;;5077101;28;20469;-86
2022/05/31 08:34:43;;;;;;;4.33;2.77;;;31.70;39.30;;;;;;5079443;28;20470;-86
2022/05/31 08:37:10;;;;;;;3.47;3.00;;;32.40;38.10;;;;;;5067836;28;20432;-85
2022/05/31 08:39:38;;;;;;;4.40;3.10;;;33.10;37.60;;;;;;5075049;28;20450;-86
2022/05/31 08:42:08;;;;;;;5.20;3.23;;;33.60;36.90;;;;;;5071177;28;20462;-87
2022/05/31 08:44:45;;;;;;;6.10;3.33;;;34.00;35.20;;;;;;5072382;28;20464;-86
2022/05/31 08:47:20;;;;;;;7.07;2.97;;;33.90;34.90;;;;;;5083194;28;20454;-87
2022/05/31 08:52:54;;;;;;;4.23;2.07;;;35.10;33.90;;;;;;5078159;28;20478;-87
2022/05/31 09:01:16;;;;;;;5.30;2.50;;;32.50;35.30;;;;;;5081923;28;20443;-86
2022/05/31 09:03:46;;;;;;;4.10;2.30;;;32.10;35.70;;;;;;5089072;28;20451;-85
2022/05/31 09:06:18;;;;;;;3.00;1.97;;;31.20;37.20;;;;;;5080252;28;20451;-86
2022/05/31 09:08:55;;;;;;;2.90;2.00;;;29.90;38.00;;;;;;5075698;28;21003;-87
2022/05/31 09:11:27;;;;;;;5.47;2.40;;;30.00;38.50;;;;;;5080249;28;20447;-86
2022/05/31 09:13:57;;;;;;;5.20;2.17;;;30.00;38.50;;;;;;5086263;28;20500;-86
2022/05/31 09:16:41;;;;;;;4.53;2.00;;;29.80;39.20;;;;;;5076230;28;20802;-87
2022/05/31 09:19:13;;;;;;;4.00;1.97;;;31.00;38.50;;;;;;5068250;28;20448;-85
2022/05/31 09:21:45;;;;;;;3.80;1.90;;;31.90;36.20;;;;;;5062708;28;20443;-85
2022/05/31 09:24:14;;;;;;;3.13;1.80;;;31.20;36.40;;;;;;5074984;28;20458;-87
2022/05/31 09:26:59;;;;;;;4.07;2.00;;;31.60;35.20;;;;;;5072343;28;20931;-86
2022/05/31 09:29:33;;;;;;;2.07;1.87;;;30.70;36.00;;;;;;5075163;28;20434;-87
2022/05/31 09:32:12;;;;;;;3.20;2.40;;;29.90;37.40;;;;;;5074837;28;20514;-87
2022/05/31 09:34:54;;;;;;;2.10;1.90;;;30.10;37.50;;;;;;5084715;28;20594;-86
2022/05/31 09:37:34;;;;;;;2.50;1.80;;;31.60;36.80;;;;;;5071987;28;21139;-87
2022/05/31 09:40:18;;;;;;;2.50;2.30;;;32.60;35.60;;;;;;5095282;28;20411;-87
2022/05/31 09:42:56;;;;;;;4.00;2.10;;;32.90;33.90;;;;;;5094665;28;20466;-87
2022/05/31 09:45:23;;;;;;;3.30;2.37;;;33.10;34.00;;;;;;5090103;28;20427;-85
2022/05/31 09:48:04;;;;;;;3.40;1.90;;;34.90;33.30;;;;;;5084534;28;20443;-92
2022/05/31 09:50:31;;;;;;;3.00;1.80;;;35.40;31.80;;;;;;5073883;28;20459;-86
2022/05/31 09:52:59;;;;;;;3.87;1.67;;;34.90;31.40;;;;;;5078676;28;20474;-87
2022/05/31 09:58:23;;;;;;;2.23;1.90;;;32.80;33.60;;;;;;5090679;28;20448;-87
2022/05/31 10:01:02;;;;;;;2.23;2.00;;;31.80;34.70;;;;;;5079631;28;20435;-86
2022/05/31 10:03:39;;;;;;;2.83;2.03;;;31.30;35.30;;;;;;5084307;28;20529;-87
2022/05/31 10:06:14;;;;;;;3.40;2.13;;;30.70;36.20;;;;;;5081873;28;20537;-87
2022/05/31 10:08:43;;;;;;;3.97;2.40;;;30.00;36.90;;;;;;5073902;28;20455;-86
2022/05/31 10:11:14;;;;;;;2.60;2.10;;;29.60;37.80;;;;;;5079948;28;20444;-86
2022/05/31 10:13:43;;;;;;;2.50;2.30;;;29.30;38.30;;;;;;5080952;28;20476;-86
2022/05/31 10:16:24;;;;;;;4.20;2.40;;;29.70;38.70;;;;;;5076247;28;20463;-84
2022/05/31 10:18:58;;;;;;;4.50;2.10;;;32.20;37.20;;;;;;5092149;28;21285;-84
2022/05/31 10:21:32;;;;;;;2.93;2.10;;;32.50;35.30;;;;;;5081249;28;20473;-86
2022/05/31 10:24:09;;;;;;;5.50;2.67;;;33.60;34.70;;;;;;5078774;28;20455;-86
2022/05/31 10:26:41;;;;;;;3.77;3.37;;;35.50;33.20;;;;;;5075952;28;20450;-85
2022/05/31 10:29:15;;;;;;;3.30;2.30;;;36.60;31.20;;;;;;5072887;28;20455;-85
2022/05/31 10:32:12;;;;;;;4.43;2.20;;;36.60;30.50;;;;;;5074381;28;20524;-91
2022/05/31 10:34:41;;;;;;;3.63;2.20;;;36.10;31.10;;;;;;5061058;28;20582;-87
2022/05/31 10:37:24;;;;;;;3.60;1.93;;;36.30;30.20;;;;;;5074230;28;20436;-87
2022/05/31 10:40:03;;;;;;;2.77;2.30;;;35.60;30.10;;;;;;5079322;28;20864;-86
2022/05/31 10:42:56;;;;;;;3.20;2.20;;;34.60;31.00;;;;;;5078198;28;20432;-88
2022/05/31 10:45:31;;;;;;;5.53;2.40;;;34.60;30.80;;;;;;5058915;28;20487;-87
2022/05/31 10:47:59;;;;;;;2.80;2.23;;;34.40;30.90;;;;;;5075922;28;20454;-88
2022/05/31 10:50:33;;;;;;;3.97;2.50;;;35.00;30.60;;;;;;5077867;28;20431;-87
2022/05/31 10:53:12;;;;;;;2.90;2.23;;;35.30;30.50;;;;;;5077474;28;20561;-87
2022/05/31 10:55:56;;;;;;;2.90;2.57;;;36.10;30.30;;;;;;5073326;28;20439;-86
2022/05/31 10:58:42;;;;;;;4.30;2.30;;;35.80;30.90;;;;;;5084719;28;20458;-86
2022/05/31 11:01:19;;;;;;;4.37;2.23;;;36.10;31.30;;;;;;5077217;28;20518;-86
2022/05/31 11:03:55;;;;;;;4.30;2.13;;;36.20;30.80;;;;;;5082543;28;20454;-89
2022/05/31 11:06:32;;;;;;;8.03;2.70;;;36.30;30.50;;;;;;5070691;28;20459;-85
2022/05/31 11:12:02;;;;;;;4.70;2.47;;;35.50;31.20;;;;;;5074029;28;20510;-85
2022/05/31 11:14:44;;;;;;;3.40;3.07;;;35.30;30.80;;;;;;5085576;22;20486;-87
2022/05/31 11:17:32;;;;;;;4.00;2.50;;;36.10;30.60;;;;;;5026689;28;20461;-86
2022/05/31 11:20:03;;;;;;;6.20;2.60;;;36.30;30.50;;;;;;5022857;28;20452;-87
2022/05/31 11:22:38;;;;;;;3.20;2.43;;;36.00;30.20;;;;;;5035398;28;20815;-86
2022/05/31 11:25:23;;;;;;;4.47;2.23;;;35.70;31.00;;;;;;5040232;28;20844;-87
2022/05/31 11:28:00;;;;;;;5.20;2.70;;;35.90;30.10;;;;;;5037080;28;20457;-86
2022/05/31 11:30:35;;;;;;;7.87;2.77;;;36.80;30.00;;;;;;5027218;28;20495;-86
2022/05/31 11:33:21;;;;;;;4.37;2.50;;;37.30;29.10;;;;;;5036723;28;20481;-86
2022/05/31 11:35:59;;;;;;;6.17;1.97;;;37.70;28.00;;;;;;5006423;28;20478;-86
2022/05/31 11:38:33;;;;;;;4.17;3.13;;;36.60;28.80;;;;;;5013497;28;20452;-87
2022/05/31 11:41:08;;;;;;;3.40;2.40;;;36.30;28.80;;;;;;5035669;28;20445;-87
2022/05/31 11:44:19;;;;;;;6.10;2.80;;;36.50;28.70;;;;;;5035033;28;20445;-86
2022/05/31 11:46:54;;;;;;;3.57;2.57;;;36.70;28.20;;;;;;5036915;28;20477;-87
2022/05/31 11:49:32;;;;;;;3.23;2.13;;;37.40;27.70;;;;;;5048067;28;20453;-86
2022/05/31 11:52:20;;;;;;;7.23;2.20;;;37.60;27.50;;;;;;5049531;28;20545;-87
2022/05/31 11:55:28;;;;;;;2.70;2.27;;;37.30;27.20;;;;;;5038976;28;20461;-87
2022/05/31 11:58:31;;;;;;;3.80;1.90;;;38.20;26.80;;;;;;5056890;28;20430;-87
2022/05/31 12:01:11;;;;;;;2.70;1.70;;;38.40;25.90;;;;;;4956055;29;20441;-87
2022/05/31 12:03:48;;;;;;;5.83;2.20;;;37.50;26.00;;;;;;5033275;28;20501;-87
2022/05/31 12:06:21;;;;;;;3.97;1.97;;;38.10;26.20;;;;;;5007665;28;20469;-87
2022/05/31 12:08:52;;;;;;;2.50;1.57;;;38.90;25.50;;;;;;5010196;28;20441;-86
2022/05/31 12:11:25;;;;;;;3.17;1.60;;;38.00;25.40;;;;;;5010207;28;20434;-86
2022/05/31 12:13:53;;;;;;;6.13;2.33;;;37.70;26.40;;;;;;5013123;28;20493;-86
2022/05/31 12:16:22;;;;;;;3.23;1.77;;;38.20;25.90;;;;;;5025181;28;20478;-86
2022/05/31 12:18:57;;;;;;;4.10;2.43;;;38.40;25.70;;;;;;5009725;28;20508;-86
2022/05/31 12:21:30;;;;;;;3.10;1.40;;;36.90;25.70;;;;;;5011329;28;20434;-86
2022/05/31 12:24:05;;;;;;;2.77;1.63;;;36.50;27.00;;;;;;5020900;28;20422;-86
2022/05/31 12:26:49;;;;;;;2.73;1.90;;;37.20;26.50;;;;;;5007191;28;20463;-86
2022/05/31 12:29:22;;;;;;;2.47;1.47;;;37.80;25.90;;;;;;4997693;28;20842;-87
2022/05/31 12:31:51;;;;;;;3.90;1.80;;;38.20;25.50;;;;;;4996972;28;20479;-86
2022/05/31 12:34:41;;;;;;;2.00;1.63;;;37.50;25.50;;;;;;4997106;28;20570;-87
2022/05/31 12:37:11;;;;;;;2.97;1.83;;;35.60;26.90;;;;;;5016307;28;20450;-90
2022/05/31 12:39:39;;;;;;;6.30;2.20;;;33.90;28.00;;;;;;5041701;28;20433;-87
2022/05/31 12:42:39;;;;;;;4.27;2.10;;;32.50;29.40;;;;;;5035887;28;20453;-87
2022/05/31 12:45:21;;;;;;;4.13;2.23;;;33.10;29.80;;;;;;5009976;28;20459;-87
2022/05/31 12:47:58;;;;;;;3.23;2.23;;;34.10;28.60;;;;;;4995099;28;20534;-86
2022/05/31 12:50:46;;;;;;;4.40;1.80;;;35.60;27.60;;;;;;4995902;28;20962;-87
2022/05/31 12:53:22;;;;;;;2.80;1.87;;;37.10;26.60;;;;;;5006001;28;20482;-86
2022/05/31 12:55:58;;;;;;;4.67;2.00;;;36.50;26.50;;;;;;5017137;28;20474;-85
2022/05/31 12:58:49;;;;;;;4.93;2.10;;;35.80;26.60;;;;;;5001917;28;20449;-87
2022/05/31 13:01:44;;;;;;;2.47;1.70;;;35.20;27.00;;;;;;5024279;28;20967;-86
2022/05/31 13:04:25;;;;;;;3.37;2.03;;;34.60;27.30;;;;;;5027938;28;20457;-86
2022/05/31 13:07:13;;;;;;;3.63;2.20;;;33.50;28.20;;;;;;5016905;28;20448;-86
2022/05/31 13:09:43;;;;;;;3.80;2.10;;;33.70;28.20;;;;;;5013216;28;20446;-87
2022/05/31 13:20:42;;;;;;;3.10;2.13;;;30.70;30.30;;;;;;5009430;28;20949;-87
2022/05/31 13:23:17;;;;;;;2.10;1.63;;;29.80;31.20;;;;;;4996738;28;20546;-87
2022/05/31 13:25:49;;;;;;;4.03;1.77;;;29.30;31.80;;;;;;4999460;28;20502;-86
2022/05/31 13:28:25;;;;;;;2.40;2.00;;;28.70;32.40;;;;;;5010247;28;20465;-86
2022/05/31 13:30:56;;;;;;;2.97;2.17;;;28.90;32.50;;;;;;5008242;28;20445;-86
2022/05/31 13:33:24;;;;;;;5.90;2.33;;;29.00;32.20;;;;;;4997148;28;21010;-87
2022/05/31 13:36:03;;;;;;;2.53;1.73;;;29.30;31.80;;;;;;4997489;28;20845;-87
2022/05/31 13:38:34;;;;;;;5.23;1.97;;;29.50;31.50;;;;;;5002851;28;20443;-88